createdAt,value
2018-05-02T00:01:38.800Z,90.30
2018-05-02T00:04:42.238Z,89.30
2018-05-02T00:07:46.309Z,89.80
2018-05-02T00:10:49.712Z,89.70
2018-05-02T00:13:53.113Z,90.10
2018-05-02T00:16:56.406Z,90.40
2018-05-02T00:19:59.621Z,90.10
2018-05-02T00:23:06.851Z,90.20
2018-05-02T00:26:12.557Z,90.20
2018-05-02T00:29:16.741Z,90.60
2018-05-02T00:32:19.958Z,90.40
2018-05-02T00:35:23.477Z,90.40
2018-05-02T00:38:26.646Z,90.30
2018-05-02T00:41:29.862Z,90.80
2018-05-02T00:44:33.038Z,89.70
2018-05-02T00:47:36.239Z,90.10
2018-05-02T00:50:39.607Z,90.30
2018-05-02T00:53:43.754Z,90.60
2018-05-02T00:56:47.027Z,90.20
2018-05-02T00:59:50.857Z,90.30
2018-05-02T01:02:54.169Z,90.00
2018-05-02T01:05:57.375Z,90.00
2018-05-02T01:09:01.006Z,89.30
2018-05-02T01:12:04.299Z,90.20
2018-05-02T01:15:07.514Z,90.10
2018-05-02T01:18:11.447Z,90.60
2018-05-02T01:21:14.645Z,90.50
2018-05-02T01:24:17.889Z,90.60
2018-05-02T01:27:21.579Z,90.70
2018-05-02T01:30:24.799Z,90.80
2018-05-02T01:33:28.135Z,90.80
2018-05-02T01:36:31.388Z,90.80
2018-05-02T01:39:34.611Z,90.90
2018-05-02T01:42:37.767Z,91.20
2018-05-02T01:45:41.801Z,91.60
2018-05-02T01:48:57.329Z,91.50
2018-05-02T01:52:00.566Z,90.90
2018-05-02T01:55:03.808Z,91.60
2018-05-02T01:58:07.027Z,91.50
2018-05-02T02:01:10.189Z,91.30
2018-05-02T02:04:13.362Z,90.90
2018-05-02T02:07:17.279Z,92.10
2018-05-02T02:10:20.508Z,92.00
2018-05-02T02:13:24.084Z,91.90
2018-05-02T02:16:27.479Z,90.90
2018-05-02T02:19:30.697Z,91.50
2018-05-02T02:22:33.937Z,91.20
2018-05-02T02:25:37.914Z,92.00
2018-05-02T02:28:41.173Z,91.90
2018-05-02T02:31:44.622Z,91.20
2018-05-02T02:34:47.971Z,91.60
2018-05-02T02:37:51.317Z,91.90
2018-05-02T02:40:55.329Z,91.20
2018-05-02T02:43:59.302Z,91.40
2018-05-02T02:47:02.554Z,91.30
2018-05-02T02:50:06.683Z,91.80
2018-05-02T02:53:11.064Z,91.30
2018-05-02T02:56:14.802Z,91.00
2018-05-02T02:59:18.121Z,91.10
2018-05-02T03:02:22.665Z,91.50
2018-05-02T03:05:25.998Z,91.10
2018-05-02T03:08:31.147Z,91.00
2018-05-02T03:11:34.483Z,90.90
2018-05-02T03:14:37.870Z,90.50
2018-05-02T03:17:41.890Z,91.00
2018-05-02T03:20:45.924Z,91.30
2018-05-02T03:23:49.190Z,91.20
2018-05-02T03:26:52.633Z,90.90
2018-05-02T03:29:57.115Z,91.60
2018-05-02T03:33:00.346Z,91.40
2018-05-02T03:36:03.603Z,90.90
2018-05-02T03:39:07.538Z,91.60
2018-05-02T03:42:11.431Z,91.50
2018-05-02T03:45:14.701Z,91.30
2018-05-02T03:48:18.722Z,91.30
2018-05-02T03:51:22.763Z,91.40
2018-05-02T03:54:26.824Z,91.20
2018-05-02T03:57:30.241Z,91.10
2018-05-02T04:00:46.245Z,91.40
2018-05-02T04:04:01.407Z,91.30
2018-05-02T04:07:13.315Z,92.10
2018-05-02T04:10:16.565Z,92.00
2018-05-02T04:13:20.599Z,91.30
2018-05-02T04:16:23.957Z,91.20
2018-05-02T04:19:27.560Z,92.00
2018-05-02T04:22:30.809Z,91.40
2018-05-02T04:25:34.195Z,91.60
2018-05-02T04:28:38.832Z,91.90
2018-05-02T04:31:42.290Z,91.30
2018-05-02T04:34:45.802Z,91.80
2018-05-02T04:37:49.244Z,90.60
2018-05-02T04:40:52.556Z,91.20
2018-05-02T04:43:56.241Z,91.40
2018-05-02T04:46:59.850Z,90.90
2018-05-02T04:50:03.817Z,90.70
2018-05-02T04:53:07.392Z,90.60
2018-05-02T04:56:10.638Z,90.60
2018-05-02T04:59:14.072Z,91.20
2018-05-02T05:02:18.087Z,90.10
2018-05-02T05:05:22.035Z,90.20
2018-05-02T05:08:25.928Z,90.10
2018-05-02T05:11:29.169Z,90.30
2018-05-02T05:14:32.500Z,88.40
2018-05-02T05:17:35.796Z,88.10
2018-05-02T05:20:39.107Z,85.70
2018-05-02T05:23:42.493Z,87.00
2018-05-02T05:26:45.853Z,88.30
2018-05-02T05:29:49.934Z,87.40
2018-05-02T05:32:53.281Z,86.10
2018-05-02T05:35:57.535Z,87.10
2018-05-02T05:39:00.834Z,86.60
2018-05-02T05:42:04.975Z,86.00
2018-05-02T05:45:08.331Z,85.50
2018-05-02T05:48:12.609Z,85.30
2018-05-02T05:51:15.889Z,84.60
2018-05-02T05:54:19.155Z,86.10
2018-05-02T05:57:23.189Z,87.50
2018-05-02T06:00:26.575Z,87.20
2018-05-02T06:03:30.541Z,83.10
2018-05-02T06:06:36.665Z,82.90
2018-05-02T06:09:39.876Z,83.30
2018-05-02T06:12:43.176Z,81.10
2018-05-02T06:15:47.490Z,82.70
2018-05-02T06:18:51.627Z,83.00
2018-05-02T06:21:54.870Z,82.80
2018-05-02T06:24:58.660Z,82.80
2018-05-02T06:28:02.366Z,84.20
2018-05-02T06:31:05.785Z,84.00
2018-05-02T06:34:09.156Z,78.40
2018-05-02T06:37:12.662Z,77.30
2018-05-02T06:40:16.052Z,73.90
2018-05-02T06:43:19.462Z,70.80
2018-05-02T06:46:23.570Z,73.60
2018-05-02T06:49:27.112Z,73.30
2018-05-02T06:52:30.466Z,72.00
2018-05-02T06:55:36.686Z,71.40
2018-05-02T06:58:42.878Z,68.20
2018-05-02T07:01:46.422Z,70.80
2018-05-02T07:04:49.798Z,71.10
2018-05-02T07:07:53.836Z,66.50
2018-05-02T07:10:58.037Z,66.10
2018-05-02T07:14:01.499Z,65.60
2018-05-02T07:17:04.948Z,65.90
2018-05-02T07:20:09.020Z,65.70
2018-05-02T07:23:12.457Z,65.30
2018-05-02T07:26:16.836Z,65.70
2018-05-02T07:29:20.139Z,65.40
2018-05-02T07:32:23.532Z,66.80
2018-05-02T07:35:27.203Z,63.80
2018-05-02T07:38:30.559Z,61.30
2018-05-02T07:41:33.830Z,58.90
2018-05-02T07:44:37.211Z,57.70
2018-05-02T07:47:40.442Z,56.80
2018-05-02T07:50:43.753Z,55.50
2018-05-02T07:53:47.044Z,54.80
2018-05-02T07:56:51.055Z,56.40
2018-05-02T07:59:54.337Z,56.20
2018-05-02T08:02:57.562Z,58.20
2018-05-02T08:06:00.818Z,56.60
2018-05-02T08:09:04.691Z,55.50
2018-05-02T08:12:09.343Z,56.70
2018-05-02T08:15:13.120Z,56.50
2018-05-02T08:18:16.553Z,55.60
2018-05-02T08:21:20.264Z,54.50
2018-05-02T08:24:24.039Z,53.80
2018-05-02T08:27:28.921Z,55.10
2018-05-02T08:30:32.785Z,53.50
2018-05-02T08:33:36.414Z,53.40
2018-05-02T08:36:40.535Z,51.10
2018-05-02T08:39:44.253Z,50.80
2018-05-02T08:42:47.762Z,48.90
2018-05-02T08:45:51.181Z,49.70
2018-05-02T08:48:54.629Z,50.50
2018-05-02T08:51:58.428Z,47.10
2018-05-02T08:55:02.223Z,48.50
2018-05-02T08:58:06.004Z,48.10
2018-05-02T09:01:09.830Z,47.70
2018-05-02T09:04:15.074Z,47.90
2018-05-02T09:07:24.545Z,48.50
2018-05-02T09:10:28.529Z,46.80
2018-05-02T09:13:32.375Z,46.80
2018-05-02T09:16:36.332Z,46.20
2018-05-02T09:19:48.714Z,44.50
2018-05-02T09:22:52.503Z,43.80
2018-05-02T09:25:56.293Z,42.80
2018-05-02T09:28:59.860Z,44.80
2018-05-02T09:32:03.091Z,45.10
2018-05-02T09:35:07.368Z,47.50
2018-05-02T09:38:10.714Z,47.10
2018-05-02T09:41:15.140Z,50.20
2018-05-02T09:44:19.666Z,48.40
2018-05-02T09:47:24.962Z,48.60
2018-05-02T09:50:28.340Z,48.30
2018-05-02T09:53:32.254Z,46.60
2018-05-02T09:56:36.728Z,45.00
2018-05-02T09:59:41.020Z,44.70
2018-05-02T10:02:45.077Z,46.60
2018-05-02T10:05:49.256Z,46.30
2018-05-02T10:08:52.450Z,43.70
2018-05-02T10:11:55.709Z,46.90
2018-05-02T10:14:59.112Z,44.40
2018-05-02T10:18:02.429Z,44.00
2018-05-02T10:21:05.848Z,46.00
2018-05-02T10:24:09.960Z,44.10
2018-05-02T10:27:13.306Z,44.00
2018-05-02T10:30:16.508Z,44.30
2018-05-02T10:33:19.706Z,45.60
2018-05-02T10:36:23.704Z,47.00
2018-05-02T10:39:27.652Z,47.60
2018-05-02T10:42:30.961Z,47.30
2018-05-02T10:45:34.992Z,45.80
2018-05-02T10:48:38.524Z,45.60
2018-05-02T10:51:42.640Z,48.40
2018-05-02T10:54:45.987Z,48.10
2018-05-02T10:57:49.130Z,46.80
2018-05-02T11:00:53.429Z,47.00
2018-05-02T11:03:56.659Z,46.50
2018-05-02T11:07:00.840Z,47.20
2018-05-02T11:10:04.109Z,47.10
2018-05-02T11:13:09.401Z,47.50
2018-05-02T11:20:01.138Z,48.00
2018-05-02T11:23:22.260Z,45.60
2018-05-02T11:26:26.196Z,45.50
2018-05-02T11:29:29.499Z,46.40
2018-05-02T11:32:32.693Z,45.50
2018-05-02T11:35:36.856Z,46.80
2018-05-02T11:38:40.087Z,47.70
2018-05-02T11:41:46.124Z,46.60
2018-05-02T11:44:50.141Z,47.00
2018-05-02T11:47:54.431Z,46.90
2018-05-02T11:51:00.492Z,47.70
2018-05-02T11:54:04.973Z,47.00
2018-05-02T11:57:08.211Z,46.90
2018-05-02T12:00:12.644Z,48.10
2018-05-02T12:03:16.614Z,48.90
2018-05-02T12:06:21.137Z,48.70
2018-05-02T12:09:24.763Z,47.20
2018-05-02T12:12:29.128Z,48.90
2018-05-02T12:15:33.130Z,49.20
2018-05-02T12:18:36.884Z,49.30
2018-05-02T12:21:41.238Z,47.30
2018-05-02T12:24:46.053Z,48.40
2018-05-02T12:27:51.487Z,47.70
2018-05-02T12:30:55.544Z,47.50
2018-05-02T12:34:03.551Z,48.70
2018-05-02T12:37:06.769Z,48.60
2018-05-02T12:40:11.018Z,48.80
2018-05-02T12:43:14.712Z,48.60
2018-05-02T12:46:18.319Z,48.90
2018-05-02T12:49:22.757Z,48.50
2018-05-02T12:52:28.073Z,48.60
2018-05-02T12:55:31.546Z,49.40
2018-05-02T12:58:34.754Z,50.00
2018-05-02T13:01:38.134Z,49.60
2018-05-02T13:04:41.485Z,47.60
2018-05-02T13:07:44.991Z,48.10
2018-05-02T13:10:48.211Z,50.60
2018-05-02T13:13:51.517Z,48.10
2018-05-02T13:16:54.726Z,49.40
2018-05-02T13:19:57.971Z,50.10
2018-05-02T13:23:01.257Z,51.50
2018-05-02T13:26:04.968Z,52.70
2018-05-02T13:29:08.337Z,50.50
2018-05-02T13:32:12.425Z,52.00
2018-05-02T13:35:16.552Z,50.90
2018-05-02T13:38:19.763Z,50.80
2018-05-02T13:41:23.037Z,51.70
2018-05-02T13:44:26.242Z,51.00
2018-05-02T13:47:30.510Z,51.00
2018-05-02T13:50:33.745Z,50.10
2018-05-02T13:53:37.099Z,50.80
2018-05-02T13:56:41.440Z,50.40
2018-05-02T13:59:44.710Z,50.10
2018-05-02T14:02:47.981Z,50.90
2018-05-02T14:05:51.202Z,50.90
2018-05-02T14:08:54.680Z,49.90
2018-05-02T14:11:57.925Z,49.90
2018-05-02T14:15:01.116Z,51.10
2018-05-02T14:18:04.379Z,52.20
2018-05-02T14:21:07.723Z,51.20
2018-05-02T14:24:11.150Z,52.50
2018-05-02T14:27:14.559Z,52.00
2018-05-02T14:30:17.953Z,52.30
2018-05-02T14:33:21.946Z,52.70
2018-05-02T14:36:25.152Z,52.60
2018-05-02T14:39:29.300Z,52.60
2018-05-02T14:42:32.510Z,54.00
2018-05-02T14:45:36.274Z,54.40
2018-05-02T14:48:39.633Z,54.20
2018-05-02T14:51:43.005Z,54.20
2018-05-02T14:54:46.432Z,54.10
2018-05-02T14:57:49.674Z,53.10
2018-05-02T15:00:52.967Z,53.50
2018-05-02T15:03:56.957Z,55.10
2018-05-02T15:07:00.260Z,55.00
2018-05-02T15:10:04.413Z,55.10
2018-05-02T15:13:08.407Z,54.60
2018-05-02T15:16:12.408Z,54.60
2018-05-02T15:19:15.697Z,54.30
2018-05-02T15:22:18.993Z,52.90
2018-05-02T15:25:23.175Z,53.60
2018-05-02T15:28:27.064Z,52.50
2018-05-02T15:31:30.322Z,53.60
2018-05-02T15:34:33.534Z,53.90
2018-05-02T15:37:37.631Z,53.80
2018-05-02T15:40:40.980Z,53.50
2018-05-02T15:43:44.225Z,53.90
2018-05-02T15:46:48.632Z,54.10
2018-05-02T15:49:54.051Z,54.10
2018-05-02T15:52:57.355Z,53.90
2018-05-02T15:56:00.664Z,54.50
2018-05-02T15:59:03.991Z,54.90
2018-05-02T16:02:08.122Z,55.00
2018-05-02T16:05:11.382Z,54.50
2018-05-02T16:08:15.548Z,55.20
2018-05-02T16:11:18.919Z,54.90
2018-05-02T16:14:23.759Z,56.30
2018-05-02T16:17:27.725Z,56.10
2018-05-02T16:20:30.981Z,55.80
2018-05-02T16:27:40.260Z,55.50
2018-05-02T16:30:44.427Z,56.40
2018-05-02T16:37:28.610Z,55.90
2018-05-02T16:40:35.995Z,55.70
2018-05-02T16:43:55.328Z,55.60
2018-05-02T16:46:59.447Z,56.80
2018-05-02T16:50:03.472Z,56.70
2018-05-02T16:53:06.803Z,56.80
2018-05-02T16:56:10.296Z,56.50
2018-05-02T16:59:13.733Z,57.50
2018-05-02T17:02:16.959Z,57.30
2018-05-02T17:05:22.425Z,57.50
2018-05-02T17:08:25.883Z,57.50
2018-05-02T17:11:29.173Z,58.00
2018-05-02T17:14:32.507Z,57.90
2018-05-02T17:17:35.803Z,57.50
2018-05-02T17:20:39.057Z,58.10
2018-05-02T17:23:43.085Z,58.80
2018-05-02T17:26:47.185Z,59.00
2018-05-02T17:30:09.533Z,58.90
2018-05-02T17:33:13.281Z,58.70
2018-05-02T17:36:17.694Z,59.10
2018-05-02T17:39:20.969Z,58.80
2018-05-02T17:42:24.303Z,58.60
2018-05-02T17:45:28.617Z,58.90
2018-05-02T17:48:31.928Z,58.80
2018-05-02T17:51:35.921Z,59.90
2018-05-02T17:58:19.721Z,60.30
2018-05-02T18:01:23.355Z,61.00
2018-05-02T18:04:27.057Z,60.30
2018-05-02T18:07:31.091Z,61.60
2018-05-02T18:10:34.482Z,61.30
2018-05-02T18:13:39.256Z,61.20
2018-05-02T18:16:44.063Z,61.30
2018-05-02T18:19:49.793Z,61.00
2018-05-02T18:22:53.122Z,61.40
2018-05-02T18:25:57.294Z,62.90
2018-05-02T18:29:01.305Z,64.40
2018-05-02T18:32:05.043Z,63.70
2018-05-02T18:35:08.287Z,62.70
2018-05-02T18:38:11.953Z,65.20
2018-05-02T18:41:15.197Z,65.70
2018-05-02T18:44:19.328Z,64.30
2018-05-02T18:47:24.094Z,64.20
2018-05-02T18:50:30.360Z,63.80
2018-05-02T18:53:36.986Z,64.30
2018-05-02T18:56:40.227Z,64.20
2018-05-02T18:59:44.705Z,65.20
2018-05-02T19:02:48.588Z,65.30
2018-05-02T19:05:53.023Z,65.70
2018-05-02T19:08:59.574Z,66.40
2018-05-02T19:12:05.420Z,66.20
2018-05-02T19:18:29.039Z,67.10
2018-05-02T19:21:32.295Z,68.20
2018-05-02T19:24:41.921Z,68.80
2018-05-02T19:27:45.107Z,68.40
2018-05-02T19:30:54.240Z,68.50
2018-05-02T19:33:59.145Z,70.10
2018-05-02T19:37:02.647Z,69.30
2018-05-02T19:40:11.648Z,69.90
2018-05-02T19:43:22.011Z,70.00
2018-05-02T19:46:25.288Z,69.80
2018-05-02T19:49:32.158Z,70.10
2018-05-02T19:56:09.576Z,69.70
2018-05-02T19:59:15.050Z,69.70
2018-05-02T20:02:27.830Z,70.10
2018-05-02T20:05:32.430Z,72.50
2018-05-02T20:08:42.046Z,71.10
2018-05-02T20:11:51.165Z,70.90
2018-05-02T20:14:56.220Z,71.10
2018-05-02T20:17:59.547Z,70.60
2018-05-02T20:21:03.725Z,73.50
2018-05-02T20:24:08.764Z,73.40
2018-05-02T20:27:12.136Z,73.40
2018-05-02T20:30:16.674Z,71.70
2018-05-02T20:33:21.459Z,71.60
2018-05-02T20:36:26.431Z,75.60
2018-05-02T20:39:31.343Z,75.10
2018-05-02T20:42:34.999Z,74.70
2018-05-02T20:45:38.461Z,75.80
2018-05-02T20:48:43.469Z,76.80
2018-05-02T20:51:46.725Z,76.70
2018-05-02T20:54:49.992Z,76.80
2018-05-02T20:57:53.545Z,76.80
2018-05-02T21:00:57.040Z,78.90
2018-05-02T21:04:01.122Z,79.00
2018-05-02T21:07:05.179Z,79.10
2018-05-02T21:10:08.418Z,79.40
2018-05-02T21:13:13.670Z,79.60
2018-05-02T21:16:16.995Z,79.30
2018-05-02T21:19:21.065Z,77.80
2018-05-02T21:22:29.133Z,78.20
2018-05-02T21:29:16.932Z,79.20
2018-05-02T21:32:20.648Z,78.70
2018-05-02T21:35:25.648Z,80.80
2018-05-02T21:38:29.612Z,81.20
2018-05-02T21:41:35.473Z,81.00
2018-05-02T21:44:39.348Z,81.50
2018-05-02T21:47:42.625Z,81.90
2018-05-02T21:50:47.402Z,82.60
2018-05-02T21:53:51.357Z,81.30
2018-05-02T22:00:27.695Z,82.20
2018-05-02T22:03:32.683Z,83.10
2018-05-02T22:06:41.460Z,82.60
2018-05-02T22:09:44.705Z,82.70
2018-05-02T22:12:50.153Z,82.70
2018-05-02T22:15:53.348Z,82.40
2018-05-02T22:18:56.505Z,82.80
2018-05-02T22:22:01.754Z,83.20
2018-05-02T22:25:06.712Z,83.30
2018-05-02T22:28:11.112Z,83.80
2018-05-02T22:31:16.336Z,84.40
2018-05-02T22:34:35.398Z,84.50
2018-05-02T22:37:44.320Z,85.10
2018-05-02T22:40:49.346Z,85.00
2018-05-02T22:43:52.560Z,85.20
2018-05-02T22:46:57.071Z,85.00
2018-05-02T22:50:01.148Z,86.20
2018-05-02T22:53:06.277Z,86.00
2018-05-02T22:56:09.468Z,86.70
2018-05-02T22:59:13.952Z,87.30
2018-05-02T23:02:20.820Z,88.90
2018-05-02T23:05:26.971Z,88.70
2018-05-02T23:08:36.910Z,86.30
2018-05-02T23:11:40.214Z,89.30
2018-05-02T23:14:43.437Z,90.10
2018-05-02T23:17:47.221Z,90.50
2018-05-02T23:20:51.362Z,90.20
2018-05-02T23:23:54.610Z,90.30
2018-05-02T23:26:57.822Z,90.20
2018-05-02T23:30:07.536Z,90.30
2018-05-02T23:33:11.565Z,90.60
2018-05-02T23:36:15.496Z,90.30
2018-05-02T23:39:24.867Z,90.30
2018-05-02T23:42:28.136Z,90.80
2018-05-02T23:45:31.583Z,90.90
2018-05-02T23:48:35.037Z,91.00
2018-05-02T23:51:38.379Z,91.30
2018-05-02T23:54:42.007Z,91.60
2018-05-02T23:57:49.004Z,91.60
